Time;durP1;ratioP1;P1;durP2;ratioP2;P2;SDS_P1;SDS_P2;PMS_P1;PMS_P2;Temp;Humidity;BMP_temperature;BMP_pressure;BME280_temperature;BME280_humidity;BME280_pressure;Samples;Min_cycle;Max_cycle;Signal;HPM_P1;HPM_P2
2024/03/12 00:01:51;;;;;;;9.40;1.10;;;;;;;;;;4869152;29;20413;-73
2024/03/12 00:04:22;;;;;;;7.15;1.33;;;;;;;;;;4869463;29;20056;-72
2024/03/12 00:06:53;;;;;;;9.57;1.38;;;;;;;;;;4869062;29;20069;-73
2024/03/12 00:09:25;;;;;;;7.38;1.10;;;;;;;;;;4868255;29;20456;-73
2024/03/12 00:11:55;;;;;;;9.15;1.55;;;;;;;;;;4866378;29;20421;-73
2024/03/12 00:14:26;;;;;;;5.38;1.23;;;;;;;;;;4866309;29;20163;-73
2024/03/12 00:16:57;;;;;;;8.93;1.40;;;;;;;;;;4867153;29;20060;-73
2024/03/12 00:19:28;;;;;;;5.82;0.88;;;;;;;;;;4866923;29;20424;-73
2024/03/12 00:22:01;;;;;;;6.55;1.30;;;;;;;;;;4867032;29;20401;-72
2024/03/12 00:24:34;;;;;;;10.82;1.42;;;;;;;;;;4866891;29;20424;-72
2024/03/12 00:27:05;;;;;;;9.10;1.80;;;;;;;;;;4866524;29;20497;-72
2024/03/12 00:29:36;;;;;;;6.72;1.38;;;;;;;;;;4868255;29;20053;-73
2024/03/12 00:32:07;;;;;;;12.10;1.58;;;;;;;;;;4867058;29;20057;-72
2024/03/12 00:34:39;;;;;;;8.68;1.40;;;;;;;;;;4868976;29;20064;-73
2024/03/12 00:37:12;;;;;;;9.32;1.40;;;;;;;;;;4869207;29;20049;-73
2024/03/12 00:39:43;;;;;;;12.30;1.15;;;;;;;;;;4869063;29;20049;-78
2024/03/12 00:42:15;;;;;;;11.18;1.15;;;;;;;;;;4868483;29;20053;-72
2024/03/12 00:44:47;;;;;;;11.05;1.17;;;;;;;;;;4868355;29;20056;-73
2024/03/12 00:47:21;;;;;;;9.80;1.45;;;;;;;;;;4867798;29;20064;-72
2024/03/12 00:49:53;;;;;;;7.72;1.58;;;;;;;;;;4868198;29;20053;-73
2024/03/12 00:52:27;;;;;;;8.27;1.40;;;;;;;;;;4868501;29;20052;-73
2024/03/12 00:54:58;;;;;;;9.02;2.75;;;;;;;;;;4868521;29;20519;-73
2024/03/12 00:57:30;;;;;;;7.13;1.08;;;;;;;;;;4870733;29;21203;-73
2024/03/12 01:00:01;;;;;;;13.80;1.63;;;;;;;;;;4872465;29;20071;-73
2024/03/12 01:02:32;;;;;;;13.90;1.30;;;;;;;;;;4872080;29;20053;-74
2024/03/12 01:05:04;;;;;;;7.40;1.23;;;;;;;;;;4872174;29;20052;-73
2024/03/12 01:07:35;;;;;;;12.13;1.38;;;;;;;;;;4872369;29;20057;-73
2024/03/12 01:10:06;;;;;;;8.43;0.95;;;;;;;;;;4872092;29;20059;-72
2024/03/12 01:12:39;;;;;;;8.25;1.80;;;;;;;;;;4872113;29;20053;-72
2024/03/12 01:15:10;;;;;;;9.68;1.35;;;;;;;;;;4872864;29;20056;-71
2024/03/12 01:17:40;;;;;;;10.80;1.70;;;;;;;;;;4871602;29;20085;-72
2024/03/12 01:20:16;;;;;;;5.63;1.20;;;;;;;;;;4870308;29;20562;-72
2024/03/12 01:22:47;;;;;;;9.18;1.20;;;;;;;;;;4871992;29;20785;-72
2024/03/12 01:25:21;;;;;;;5.32;1.27;;;;;;;;;;4872050;29;20084;-72
2024/03/12 01:27:55;;;;;;;11.55;1.15;;;;;;;;;;4872235;29;20893;-72
2024/03/12 01:30:26;;;;;;;9.07;1.35;;;;;;;;;;4871606;29;20048;-72
2024/03/12 01:32:57;;;;;;;9.38;1.27;;;;;;;;;;4871467;29;20351;-72
2024/03/12 01:35:30;;;;;;;15.32;1.52;;;;;;;;;;4870243;29;20068;-72
2024/03/12 01:38:03;;;;;;;8.80;1.35;;;;;;;;;;4871245;29;20049;-72
2024/03/12 01:40:34;;;;;;;6.32;1.73;;;;;;;;;;4871253;29;20398;-73
2024/03/12 01:43:06;;;;;;;5.75;1.20;;;;;;;;;;4869700;29;20049;-73
2024/03/12 01:45:38;;;;;;;4.80;1.10;;;;;;;;;;4871315;29;20056;-72
2024/03/12 01:48:10;;;;;;;4.57;0.82;;;;;;;;;;4871742;29;20063;-72
2024/03/12 01:50:42;;;;;;;7.90;1.65;;;;;;;;;;4870532;29;20049;-72
2024/03/12 01:53:13;;;;;;;6.10;1.27;;;;;;;;;;4870668;29;20056;-72
2024/03/12 01:55:49;;;;;;;10.35;1.48;;;;;;;;;;4871231;29;20072;-72
2024/03/12 01:58:21;;;;;;;7.60;1.10;;;;;;;;;;4871170;29;20051;-73
2024/03/12 02:00:51;;;;;;;8.07;1.65;;;;;;;;;;4871404;29;20045;-72
2024/03/12 02:03:22;;;;;;;4.28;1.25;;;;;;;;;;4872249;29;20049;-72
2024/03/12 02:05:52;;;;;;;4.55;1.00;;;;;;;;;;4871139;29;20053;-72
2024/03/12 02:08:22;;;;;;;13.15;1.50;;;;;;;;;;4870504;29;20060;-72
2024/03/12 02:10:54;;;;;;;7.13;1.27;;;;;;;;;;4871224;29;20060;-72
2024/03/12 02:13:24;;;;;;;6.75;1.20;;;;;;;;;;4870944;29;20052;-72
2024/03/12 02:15:56;;;;;;;6.03;1.25;;;;;;;;;;4871057;29;20413;-73
2024/03/12 02:18:27;;;;;;;8.70;1.50;;;;;;;;;;4870770;29;20053;-73
2024/03/12 02:20:57;;;;;;;5.43;1.30;;;;;;;;;;4871028;29;20180;-72
2024/03/12 02:23:48;;;;;;;7.40;1.40;;;;;;;;;;4870858;29;20053;-72
2024/03/12 02:26:19;;;;;;;6.85;1.20;;;;;;;;;;4870050;29;20057;-72
2024/03/12 02:28:51;;;;;;;4.43;1.08;;;;;;;;;;4870488;29;20041;-73
2024/03/12 02:31:22;;;;;;;4.82;1.15;;;;;;;;;;4870626;29;20048;-72
2024/03/12 02:33:52;;;;;;;6.70;1.30;;;;;;;;;;4870555;29;20068;-72
2024/03/12 02:36:23;;;;;;;10.68;1.45;;;;;;;;;;4869583;29;20075;-73
2024/03/12 02:38:53;;;;;;;6.43;1.58;;;;;;;;;;4870850;29;20615;-72
2024/03/12 02:41:25;;;;;;;8.40;1.40;;;;;;;;;;4869276;29;20053;-72
2024/03/12 02:43:55;;;;;;;4.00;1.23;;;;;;;;;;4870330;29;20053;-72
2024/03/12 02:46:27;;;;;;;10.90;1.35;;;;;;;;;;4870722;29;20052;-72
2024/03/12 02:48:58;;;;;;;8.25;1.25;;;;;;;;;;4870305;29;20056;-73
2024/03/12 02:51:28;;;;;;;6.43;1.20;;;;;;;;;;4870774;29;20045;-73
2024/03/12 02:53:59;;;;;;;9.65;1.58;;;;;;;;;;4870388;29;20049;-72
2024/03/12 02:56:31;;;;;;;10.23;1.70;;;;;;;;;;4870884;29;20060;-72
2024/03/12 02:59:03;;;;;;;8.32;1.30;;;;;;;;;;4870083;29;20060;-73
2024/03/12 03:01:33;;;;;;;5.88;1.30;;;;;;;;;;4869646;29;20049;-73
2024/03/12 03:04:04;;;;;;;8.13;1.40;;;;;;;;;;4870858;29;20056;-72
2024/03/12 03:06:34;;;;;;;4.50;1.13;;;;;;;;;;4869533;29;20060;-72
2024/03/12 03:09:06;;;;;;;8.43;1.38;;;;;;;;;;4870375;29;20060;-73
2024/03/12 03:11:37;;;;;;;9.30;1.45;;;;;;;;;;4869849;29;20064;-73
2024/03/12 03:14:07;;;;;;;5.53;0.95;;;;;;;;;;4869553;29;20053;-72
2024/03/12 03:16:37;;;;;;;8.13;1.58;;;;;;;;;;4869934;29;20049;-72
2024/03/12 03:19:08;;;;;;;11.52;1.40;;;;;;;;;;4869900;29;20061;-73
2024/03/12 03:21:39;;;;;;;5.47;0.90;;;;;;;;;;4870220;29;20505;-72
2024/03/12 03:24:10;;;;;;;5.80;1.00;;;;;;;;;;4870016;29;20052;-72
2024/03/12 03:26:40;;;;;;;6.05;1.58;;;;;;;;;;4869768;29;20059;-72
2024/03/12 03:29:11;;;;;;;8.38;1.10;;;;;;;;;;4869435;29;20498;-72
2024/03/12 03:31:41;;;;;;;4.93;1.20;;;;;;;;;;4869935;29;20056;-73
2024/03/12 03:34:12;;;;;;;6.13;1.30;;;;;;;;;;4869854;29;20398;-73
2024/03/12 03:36:43;;;;;;;5.72;1.08;;;;;;;;;;4869456;29;20056;-73
2024/03/12 03:39:13;;;;;;;4.75;1.25;;;;;;;;;;4869382;29;20045;-72
2024/03/12 03:41:44;;;;;;;3.63;1.05;;;;;;;;;;4869245;29;20048;-72
2024/03/12 03:44:15;;;;;;;7.35;1.40;;;;;;;;;;4868871;29;20049;-72
2024/03/12 03:46:46;;;;;;;8.50;1.45;;;;;;;;;;4867896;29;20064;-73
2024/03/12 03:49:16;;;;;;;6.13;1.20;;;;;;;;;;4869256;29;20049;-72
2024/03/12 03:51:47;;;;;;;11.75;1.63;;;;;;;;;;4869222;29;20048;-73
2024/03/12 03:54:18;;;;;;;6.32;1.00;;;;;;;;;;4869495;29;20049;-72
2024/03/12 03:56:49;;;;;;;5.10;0.93;;;;;;;;;;4869182;29;20061;-72
2024/03/12 03:59:21;;;;;;;6.38;0.88;;;;;;;;;;4869300;29;20432;-73
2024/03/12 04:01:51;;;;;;;5.70;1.08;;;;;;;;;;4869240;29;20049;-73
2024/03/12 04:04:22;;;;;;;7.82;1.30;;;;;;;;;;4868976;29;20500;-73
2024/03/12 04:06:53;;;;;;;9.10;1.27;;;;;;;;;;4868874;29;21186;-72
2024/03/12 04:09:25;;;;;;;10.02;1.67;;;;;;;;;;4868138;29;20101;-72
2024/03/12 04:11:55;;;;;;;6.63;1.15;;;;;;;;;;4869358;29;20056;-73
2024/03/12 04:14:26;;;;;;;9.82;1.40;;;;;;;;;;4869745;29;20497;-73
2024/03/12 04:16:57;;;;;;;6.10;1.25;;;;;;;;;;4867739;29;20049;-72
2024/03/12 04:19:32;;;;;;;6.65;1.15;;;;;;;;;;4869461;29;20049;-72
2024/03/12 04:22:04;;;;;;;3.78;1.15;;;;;;;;;;4869039;29;20053;-72
2024/03/12 04:24:37;;;;;;;10.48;1.30;;;;;;;;;;4868564;29;20103;-71
2024/03/12 04:27:08;;;;;;;6.32;0.98;;;;;;;;;;4868354;29;20060;-72
2024/03/12 04:29:38;;;;;;;8.15;1.17;;;;;;;;;;4868814;29;20584;-72
2024/03/12 04:32:09;;;;;;;11.05;1.40;;;;;;;;;;4871307;29;20060;-72
2024/03/12 04:34:40;;;;;;;2.53;1.20;;;;;;;;;;4874964;29;20135;-72
2024/03/12 04:37:12;;;;;;;8.15;1.17;;;;;;;;;;4874485;29;20081;-72
2024/03/12 04:39:43;;;;;;;4.28;1.10;;;;;;;;;;4874747;29;20049;-72
2024/03/12 04:42:14;;;;;;;3.83;1.15;;;;;;;;;;4875349;29;20592;-73
2024/03/12 04:44:46;;;;;;;5.22;1.30;;;;;;;;;;4875333;29;20409;-72
2024/03/12 04:47:17;;;;;;;5.80;0.95;;;;;;;;;;4874806;29;20045;-72
2024/03/12 04:49:47;;;;;;;4.07;1.40;;;;;;;;;;4874149;29;20057;-72
2024/03/12 04:52:18;;;;;;;8.52;1.48;;;;;;;;;;4873436;29;20057;-72
2024/03/12 04:54:49;;;;;;;6.18;1.40;;;;;;;;;;4874673;29;20053;-72
2024/03/12 04:57:19;;;;;;;5.95;1.08;;;;;;;;;;4875007;29;20071;-72
2024/03/12 04:59:50;;;;;;;9.27;1.25;;;;;;;;;;4874863;29;20055;-72
2024/03/12 05:02:20;;;;;;;5.13;1.00;;;;;;;;;;4874968;29;20504;-73
2024/03/12 05:04:49;;;;;;;7.13;1.15;;;;;;;;;;4874443;29;20517;-72
2024/03/12 05:07:21;;;;;;;3.60;1.05;;;;;;;;;;4873035;29;20520;-72
2024/03/12 05:09:52;;;;;;;4.63;1.25;;;;;;;;;;4874306;29;20412;-73
2024/03/12 05:12:22;;;;;;;4.90;1.05;;;;;;;;;;4874786;29;20053;-72
2024/03/12 05:14:52;;;;;;;3.58;1.10;;;;;;;;;;4874286;29;20045;-72
2024/03/12 05:17:22;;;;;;;12.40;1.52;;;;;;;;;;4873071;29;20497;-72
2024/03/12 05:19:54;;;;;;;7.32;1.13;;;;;;;;;;4874838;29;20040;-72
2024/03/12 05:22:26;;;;;;;2.92;1.10;;;;;;;;;;4874661;29;20062;-72
2024/03/12 05:24:56;;;;;;;5.38;1.33;;;;;;;;;;4874231;29;20064;-73
2024/03/12 05:27:35;;;;;;;3.88;1.52;;;;;;;;;;4873931;29;20052;-73
2024/03/12 05:30:14;;;;;;;4.25;1.30;;;;;;;;;;4872906;29;20438;-72
2024/03/12 05:32:48;;;;;;;6.75;1.20;;;;;;;;;;4874164;29;20063;-72
2024/03/12 05:35:22;;;;;;;8.23;1.83;;;;;;;;;;4875388;29;20076;-72
2024/03/12 05:38:03;;;;;;;9.27;1.33;;;;;;;;;;4875086;29;20064;-72
2024/03/12 05:48:50;;;;;;;10.88;1.63;;;;;;;;;;4871698;29;20053;-72
2024/03/12 05:51:21;;;;;;;4.50;1.00;;;;;;;;;;4871533;29;20060;-72
2024/03/12 05:53:53;;;;;;;6.88;1.60;;;;;;;;;;4871619;29;20037;-73
2024/03/12 05:56:23;;;;;;;4.93;1.30;;;;;;;;;;4869182;29;20618;-73
2024/03/12 05:58:54;;;;;;;3.10;1.00;;;;;;;;;;4870883;29;20446;-72
2024/03/12 06:01:25;;;;;;;8.23;1.42;;;;;;;;;;4870965;29;20053;-72
2024/03/12 06:03:56;;;;;;;3.13;1.23;;;;;;;;;;4871758;29;20056;-73
2024/03/12 06:06:26;;;;;;;3.92;1.20;;;;;;;;;;4871344;29;20049;-72
2024/03/12 06:08:56;;;;;;;6.28;1.20;;;;;;;;;;4871186;29;20049;-72
2024/03/12 06:11:27;;;;;;;7.28;1.15;;;;;;;;;;4871650;29;20505;-72
2024/03/12 06:14:00;;;;;;;2.70;1.10;;;;;;;;;;4872043;29;20045;-72
2024/03/12 06:16:33;;;;;;;7.90;1.30;;;;;;;;;;4871187;29;20718;-72
2024/03/12 06:19:03;;;;;;;14.50;2.40;;;;;;;;;;4870425;29;20053;-72
2024/03/12 06:21:33;;;;;;;8.48;1.70;;;;;;;;;;4871068;29;20060;-72
2024/03/12 06:24:05;;;;;;;3.15;1.38;;;;;;;;;;4871319;29;20049;-73
2024/03/12 06:26:37;;;;;;;11.70;1.60;;;;;;;;;;4871023;29;20512;-72
2024/03/12 06:29:08;;;;;;;4.25;1.70;;;;;;;;;;4871151;29;20463;-72
2024/03/12 06:31:38;;;;;;;6.32;1.42;;;;;;;;;;4870714;29;20444;-72
2024/03/12 06:34:08;;;;;;;3.55;1.30;;;;;;;;;;4868738;29;20045;-73
2024/03/12 06:36:40;;;;;;;8.23;1.50;;;;;;;;;;4870428;29;20057;-72
2024/03/12 06:39:17;;;;;;;3.58;1.17;;;;;;;;;;4870384;29;20056;-72
2024/03/12 06:41:48;;;;;;;4.95;1.23;;;;;;;;;;4870944;29;20049;-72
2024/03/12 06:44:21;;;;;;;3.13;1.30;;;;;;;;;;4870430;29;20534;-72
2024/03/12 06:46:52;;;;;;;1.58;1.20;;;;;;;;;;4869702;29;20513;-72
2024/03/12 06:49:22;;;;;;;9.57;1.45;;;;;;;;;;4870220;29;20049;-73
2024/03/12 06:51:53;;;;;;;5.85;1.30;;;;;;;;;;4870737;29;20409;-73
2024/03/12 06:54:26;;;;;;;3.53;1.15;;;;;;;;;;4869609;29;20040;-72
2024/03/12 06:56:57;;;;;;;6.38;1.60;;;;;;;;;;4870634;29;20061;-72
2024/03/12 06:59:27;;;;;;;9.88;1.40;;;;;;;;;;4870047;29;20049;-71
2024/03/12 07:01:57;;;;;;;3.25;1.33;;;;;;;;;;4868372;29;20056;-73
2024/03/12 07:04:34;;;;;;;6.78;1.83;;;;;;;;;;4870029;29;20049;-73
2024/03/12 07:07:05;;;;;;;5.85;1.50;;;;;;;;;;4870099;29;20512;-73
2024/03/12 07:09:41;;;;;;;7.75;1.40;;;;;;;;;;4870160;29;20678;-72
2024/03/12 07:12:20;;;;;;;3.30;1.17;;;;;;;;;;4869861;29;20045;-72
2024/03/12 07:14:57;;;;;;;9.48;1.48;;;;;;;;;;4869518;29;20496;-73
2024/03/12 07:17:27;;;;;;;4.30;1.40;;;;;;;;;;4870074;29;20497;-73
2024/03/12 07:19:59;;;;;;;5.13;1.13;;;;;;;;;;4869917;29;20056;-72
2024/03/12 07:22:30;;;;;;;8.32;1.42;;;;;;;;;;4869837;29;20398;-72
2024/03/12 07:25:00;;;;;;;5.07;1.30;;;;;;;;;;4869811;29;20053;-72
2024/03/12 07:27:31;;;;;;;3.97;1.50;;;;;;;;;;4869467;29;20067;-73
2024/03/12 07:30:03;;;;;;;6.57;1.50;;;;;;;;;;4869644;29;20064;-73
2024/03/12 07:32:35;;;;;;;9.55;1.38;;;;;;;;;;4869804;29;20745;-73
2024/03/12 07:35:06;;;;;;;6.45;1.33;;;;;;;;;;4869627;29;20060;-73
2024/03/12 07:37:39;;;;;;;7.78;1.40;;;;;;;;;;4868246;29;20061;-73
2024/03/12 07:40:09;;;;;;;5.00;1.30;;;;;;;;;;4869164;29;20052;-72
2024/03/12 07:42:42;;;;;;;3.60;1.30;;;;;;;;;;4869287;29;20053;-73
2024/03/12 07:45:16;;;;;;;5.40;1.30;;;;;;;;;;4869257;29;20071;-72
2024/03/12 07:47:46;;;;;;;3.40;1.13;;;;;;;;;;4868940;29;20053;-72
2024/03/12 07:50:17;;;;;;;6.40;1.30;;;;;;;;;;4869977;29;20440;-73
2024/03/12 07:52:48;;;;;;;6.90;1.50;;;;;;;;;;4869185;29;20059;-73
2024/03/12 07:55:19;;;;;;;6.70;1.73;;;;;;;;;;4869382;29;20056;-73
2024/03/12 07:57:50;;;;;;;3.88;1.17;;;;;;;;;;4869067;29;20076;-72
2024/03/12 08:00:20;;;;;;;3.28;1.17;;;;;;;;;;4869552;29;20527;-73
2024/03/12 08:02:51;;;;;;;9.35;1.55;;;;;;;;;;4869250;29;20697;-72
2024/03/12 08:05:23;;;;;;;5.00;1.35;;;;;;;;;;4870369;29;20053;-73
2024/03/12 08:07:53;;;;;;;8.68;1.38;;;;;;;;;;4868823;29;20053;-73
2024/03/12 08:10:23;;;;;;;5.30;1.10;;;;;;;;;;4869209;29;20052;-73
2024/03/12 08:12:54;;;;;;;8.52;1.30;;;;;;;;;;4867268;29;20075;-73
2024/03/12 08:15:27;;;;;;;5.22;1.20;;;;;;;;;;4869181;29;20049;-73
2024/03/12 08:17:58;;;;;;;7.72;1.48;;;;;;;;;;4869565;29;20459;-73
2024/03/12 08:20:45;;;;;;;5.63;1.40;;;;;;;;;;4869103;29;20045;-72
2024/03/12 08:23:16;;;;;;;4.57;1.40;;;;;;;;;;4868879;29;20049;-73
2024/03/12 08:25:47;;;;;;;7.57;1.40;;;;;;;;;;4868808;29;20053;-72
2024/03/12 08:28:31;;;;;;;8.38;1.55;;;;;;;;;;4868676;29;20060;-72
2024/03/12 08:31:02;;;;;;;8.55;1.40;;;;;;;;;;4868680;29;20076;-73
2024/03/12 08:33:46;;;;;;;5.25;1.52;;;;;;;;;;4868065;29;20052;-73
2024/03/12 08:36:17;;;;;;;5.47;1.50;;;;;;;;;;4868785;29;20057;-73
2024/03/12 08:38:48;;;;;;;2.00;1.20;;;;;;;;;;4866729;29;20065;-73
2024/03/12 08:41:19;;;;;;;3.90;1.30;;;;;;;;;;4868710;29;20056;-72
2024/03/12 08:43:50;;;;;;;5.78;1.85;;;;;;;;;;4868716;29;20056;-73
2024/03/12 08:46:20;;;;;;;3.65;1.60;;;;;;;;;;4868307;29;20594;-73
2024/03/12 08:48:52;;;;;;;8.60;1.80;;;;;;;;;;4868690;29;20064;-72
2024/03/12 08:51:23;;;;;;;5.40;1.60;;;;;;;;;;4867054;29;20057;-72
2024/03/12 08:53:55;;;;;;;4.95;1.20;;;;;;;;;;4869134;29;20686;-73
2024/03/12 08:56:26;;;;;;;4.97;1.45;;;;;;;;;;4869000;29;20509;-73
2024/03/12 08:58:59;;;;;;;5.40;1.88;;;;;;;;;;4868309;29;20049;-72
2024/03/12 09:01:31;;;;;;;7.00;1.40;;;;;;;;;;4868718;29;20049;-73
2024/03/12 09:04:02;;;;;;;5.22;1.15;;;;;;;;;;4868434;29;20049;-72
2024/03/12 09:06:34;;;;;;;2.50;1.13;;;;;;;;;;4868430;29;20049;-72
2024/03/12 09:09:05;;;;;;;9.25;1.33;;;;;;;;;;4868246;29;20060;-72
2024/03/12 09:11:38;;;;;;;3.30;1.13;;;;;;;;;;4868621;29;20057;-72
2024/03/12 09:14:08;;;;;;;10.05;1.40;;;;;;;;;;4868608;29;20057;-73
2024/03/12 09:16:39;;;;;;;5.65;1.60;;;;;;;;;;4868710;29;20528;-72
2024/03/12 09:19:11;;;;;;;6.13;1.75;;;;;;;;;;4871408;29;20048;-73
2024/03/12 09:21:42;;;;;;;2.92;1.30;;;;;;;;;;4872147;29;20059;-72
2024/03/12 09:24:15;;;;;;;5.13;1.40;;;;;;;;;;4872344;29;20057;-73
2024/03/12 09:26:46;;;;;;;7.68;1.65;;;;;;;;;;4872195;29;21137;-72
2024/03/12 09:29:17;;;;;;;6.85;1.90;;;;;;;;;;4871645;29;20052;-72
2024/03/12 09:31:47;;;;;;;8.90;2.47;;;;;;;;;;4871901;29;20041;-73
2024/03/12 09:34:17;;;;;;;6.10;1.75;;;;;;;;;;4871794;29;20041;-72
2024/03/12 09:36:49;;;;;;;7.45;1.88;;;;;;;;;;4872001;29;20056;-73
2024/03/12 09:39:23;;;;;;;5.63;1.60;;;;;;;;;;4871940;29;20053;-73
2024/03/12 09:41:55;;;;;;;8.13;1.65;;;;;;;;;;4871594;29;20424;-72
2024/03/12 09:44:26;;;;;;;4.60;1.63;;;;;;;;;;4870800;29;20063;-73
2024/03/12 09:46:58;;;;;;;8.50;1.70;;;;;;;;;;4871621;29;20060;-72
2024/03/12 09:49:30;;;;;;;6.45;2.78;;;;;;;;;;4871572;29;20057;-73
2024/03/12 09:52:05;;;;;;;5.18;2.78;;;;;;;;;;4871629;29;20933;-72
2024/03/12 09:54:36;;;;;;;8.55;1.92;;;;;;;;;;4871118;29;20056;-73
2024/03/12 09:57:11;;;;;;;8.27;1.92;;;;;;;;;;4871408;29;20518;-73
2024/03/12 09:59:43;;;;;;;7.30;2.00;;;;;;;;;;4871620;29;20068;-72
2024/03/12 10:02:14;;;;;;;9.65;1.65;;;;;;;;;;4871548;29;20074;-73
2024/03/12 10:04:46;;;;;;;14.88;2.10;;;;;;;;;;4869180;29;20069;-76
2024/03/12 10:07:17;;;;;;;8.40;1.85;;;;;;;;;;4871042;29;20056;-72
2024/03/12 10:09:49;;;;;;;6.95;1.95;;;;;;;;;;4871528;29;20061;-73
2024/03/12 10:12:21;;;;;;;4.43;1.75;;;;;;;;;;4870993;29;20064;-72
2024/03/12 10:14:52;;;;;;;4.72;2.05;;;;;;;;;;4871300;29;20052;-73
2024/03/12 10:17:22;;;;;;;7.30;2.22;;;;;;;;;;4871340;29;20823;-73
2024/03/12 10:20:15;;;;;;;4.75;2.47;;;;;;;;;;4869179;29;20068;-75
2024/03/12 10:22:47;;;;;;;10.93;2.33;;;;;;;;;;4870772;29;20049;-72
2024/03/12 10:25:17;;;;;;;10.73;2.35;;;;;;;;;;4871287;29;20049;-73
2024/03/12 10:27:54;;;;;;;8.20;3.67;;;;;;;;;;4870666;29;20059;-73
2024/03/12 10:30:28;;;;;;;11.02;3.08;;;;;;;;;;4870210;29;20045;-72
2024/03/12 10:33:17;;;;;;;12.10;4.75;;;;;;;;;;4869608;29;20064;-73
2024/03/12 10:35:50;;;;;;;11.85;3.67;;;;;;;;;;4870505;29;20052;-72
2024/03/12 10:38:28;;;;;;;9.98;3.38;;;;;;;;;;4870806;29;20057;-72
2024/03/12 10:41:18;;;;;;;11.20;4.22;;;;;;;;;;4870700;29;20056;-73
2024/03/12 10:43:54;;;;;;;12.80;3.28;;;;;;;;;;4870378;29;20065;-72
2024/03/12 10:46:25;;;;;;;23.98;4.35;;;;;;;;;;4869229;29;20076;-72
2024/03/12 10:48:55;;;;;;;14.00;3.42;;;;;;;;;;4869276;29;20064;-85
2024/03/12 10:51:27;;;;;;;13.43;3.40;;;;;;;;;;4870384;29;20045;-72
2024/03/12 10:53:58;;;;;;;6.70;3.08;;;;;;;;;;4870095;29;20060;-72
2024/03/12 10:56:31;;;;;;;15.35;4.13;;;;;;;;;;4868853;29;20068;-72
2024/03/12 10:59:03;;;;;;;13.23;3.55;;;;;;;;;;4868856;29;20048;-72
2024/03/12 11:01:33;;;;;;;12.48;2.97;;;;;;;;;;4868663;29;20060;-81
2024/03/12 11:04:05;;;;;;;6.13;2.80;;;;;;;;;;4869771;29;20057;-73
2024/03/12 11:06:37;;;;;;;5.38;2.75;;;;;;;;;;4870079;29;20610;-73
2024/03/12 11:09:12;;;;;;;8.55;2.70;;;;;;;;;;4870295;29;20131;-72
2024/03/12 11:11:43;;;;;;;9.88;2.67;;;;;;;;;;4868055;29;20064;-73
2024/03/12 11:14:16;;;;;;;13.98;2.83;;;;;;;;;;4870361;29;20080;-76
2024/03/12 11:16:47;;;;;;;7.60;1.85;;;;;;;;;;4869615;29;20060;-73
2024/03/12 11:19:22;;;;;;;14.00;2.20;;;;;;;;;;4869693;29;20053;-77
2024/03/12 11:21:59;;;;;;;10.18;1.90;;;;;;;;;;4870186;29;20053;-73
2024/03/12 11:24:45;;;;;;;5.50;1.60;;;;;;;;;;4869203;29;20048;-72
2024/03/12 11:27:25;;;;;;;11.02;1.83;;;;;;;;;;4869523;29;20512;-72
2024/03/12 11:30:08;;;;;;;16.17;2.28;;;;;;;;;;4869196;29;20064;-73
2024/03/12 11:32:50;;;;;;;15.43;2.58;;;;;;;;;;4869634;29;20052;-73
2024/03/12 11:35:21;;;;;;;19.83;2.25;;;;;;;;;;4867578;29;20513;-72
2024/03/12 11:37:58;;;;;;;9.80;1.80;;;;;;;;;;4870056;29;20060;-74
2024/03/12 11:40:39;;;;;;;8.10;1.85;;;;;;;;;;4869518;29;20049;-72
2024/03/12 11:43:16;;;;;;;9.10;2.42;;;;;;;;;;4868425;29;20711;-73
2024/03/12 11:45:48;;;;;;;7.25;1.98;;;;;;;;;;4869704;29;20512;-73
2024/03/12 11:48:21;;;;;;;6.20;1.73;;;;;;;;;;4869825;29;20412;-74
2024/03/12 11:50:55;;;;;;;6.93;1.77;;;;;;;;;;4867990;29;20057;-73
2024/03/12 11:53:35;;;;;;;4.03;1.23;;;;;;;;;;4869089;29;20412;-73
2024/03/12 11:56:06;;;;;;;3.60;1.38;;;;;;;;;;4869614;29;20420;-73
2024/03/12 11:58:46;;;;;;;2.75;1.38;;;;;;;;;;4869621;29;20045;-73
2024/03/12 12:01:29;;;;;;;11.00;1.95;;;;;;;;;;4868947;29;20062;-72
2024/03/12 12:04:07;;;;;;;3.97;1.98;;;;;;;;;;4868590;29;20069;-73
2024/03/12 12:06:39;;;;;;;7.97;4.30;;;;;;;;;;4867317;29;20053;-73
2024/03/12 12:09:11;;;;;;;6.10;1.88;;;;;;;;;;4868781;29;20571;-73
2024/03/12 12:11:42;;;;;;;7.88;5.43;;;;;;;;;;4868547;29;20515;-72
2024/03/12 12:14:12;;;;;;;6.50;1.83;;;;;;;;;;4868535;29;20057;-73
2024/03/12 12:16:43;;;;;;;10.00;2.55;;;;;;;;;;4869244;29;20052;-74
2024/03/12 12:19:15;;;;;;;4.88;1.63;;;;;;;;;;4869067;29;20053;-73
2024/03/12 12:21:53;;;;;;;6.57;1.73;;;;;;;;;;4869140;29;20057;-73
2024/03/12 12:24:25;;;;;;;6.22;1.52;;;;;;;;;;4869263;29;20053;-73
2024/03/12 12:26:57;;;;;;;4.93;1.60;;;;;;;;;;4869883;29;20056;-73
2024/03/12 12:29:29;;;;;;;7.53;1.58;;;;;;;;;;4867212;29;20053;-73
2024/03/12 12:32:00;;;;;;;10.30;2.97;;;;;;;;;;4868663;29;20053;-74
2024/03/12 12:34:33;;;;;;;6.63;1.50;;;;;;;;;;4868055;29;20053;-74
2024/03/12 12:37:09;;;;;;;4.57;1.65;;;;;;;;;;4868189;29;20056;-73
2024/03/12 12:39:42;;;;;;;5.85;1.33;;;;;;;;;;4868779;29;20063;-73
2024/03/12 12:42:23;;;;;;;4.78;1.70;;;;;;;;;;4867378;29;20542;-74
2024/03/12 12:44:54;;;;;;;4.20;1.75;;;;;;;;;;4868769;29;20056;-72
2024/03/12 12:47:25;;;;;;;5.93;1.23;;;;;;;;;;4868758;29;20056;-73
2024/03/12 12:49:59;;;;;;;15.68;2.25;;;;;;;;;;4868816;29;20064;-73
2024/03/12 12:52:29;;;;;;;6.20;2.45;;;;;;;;;;4868763;29;20053;-78
2024/03/12 12:55:00;;;;;;;5.70;1.92;;;;;;;;;;4872477;29;20049;-73
2024/03/12 12:57:35;;;;;;;6.68;1.70;;;;;;;;;;4872419;29;20061;-72
2024/03/12 13:00:23;;;;;;;3.08;1.70;;;;;;;;;;4871948;29;20446;-72
2024/03/12 13:02:53;;;;;;;4.45;1.63;;;;;;;;;;4872325;29;20053;-72
2024/03/12 13:05:24;;;;;;;5.05;1.75;;;;;;;;;;4872661;29;20052;-73
2024/03/12 13:07:55;;;;;;;17.92;1.98;;;;;;;;;;4872633;29;20045;-73
2024/03/12 13:10:26;;;;;;;6.60;1.63;;;;;;;;;;4872043;29;20062;-73
2024/03/12 13:12:58;;;;;;;7.60;1.95;;;;;;;;;;4871765;29;20057;-76
2024/03/12 13:15:33;;;;;;;2.85;1.48;;;;;;;;;;4870712;29;20049;-75
2024/03/12 13:18:05;;;;;;;30.90;2.67;;;;;;;;;;4872566;29;20064;-76
2024/03/12 13:20:35;;;;;;;7.15;1.63;;;;;;;;;;4871490;29;20053;-72
2024/03/12 13:23:08;;;;;;;8.25;1.65;;;;;;;;;;4871353;29;20231;-72
2024/03/12 13:25:39;;;;;;;5.57;1.65;;;;;;;;;;4871724;29;20052;-72
2024/03/12 13:28:10;;;;;;;8.45;1.90;;;;;;;;;;4872028;29;20049;-74
2024/03/12 13:30:42;;;;;;;8.23;4.75;;;;;;;;;;4871614;29;20517;-72
2024/03/12 13:33:13;;;;;;;5.88;1.50;;;;;;;;;;4871014;29;20539;-73
2024/03/12 13:35:43;;;;;;;9.93;2.80;;;;;;;;;;4871267;29;20398;-72
2024/03/12 13:38:15;;;;;;;3.42;1.30;;;;;;;;;;4871448;29;20053;-83
2024/03/12 13:40:45;;;;;;;6.10;1.83;;;;;;;;;;4871624;29;20052;-73
2024/03/12 13:43:16;;;;;;;3.00;1.70;;;;;;;;;;4871758;29;20056;-73
2024/03/12 13:45:48;;;;;;;3.65;1.58;;;;;;;;;;4870900;29;20516;-73
2024/03/12 13:48:19;;;;;;;5.80;1.90;;;;;;;;;;4871757;29;20057;-73
2024/03/12 13:51:00;;;;;;;2.85;1.60;;;;;;;;;;4871152;29;20052;-72
2024/03/12 13:53:32;;;;;;;5.85;1.90;;;;;;;;;;4871554;29;20685;-75
2024/03/12 13:56:04;;;;;;;4.70;2.10;;;;;;;;;;4871064;29;20409;-72
2024/03/12 13:58:37;;;;;;;5.53;2.53;;;;;;;;;;4870700;29;20501;-73
2024/03/12 14:01:12;;;;;;;5.93;1.80;;;;;;;;;;4871580;29;20061;-73
2024/03/12 14:03:42;;;;;;;5.78;1.88;;;;;;;;;;4871059;29;20489;-73
2024/03/12 14:06:12;;;;;;;7.40;1.80;;;;;;;;;;4868891;29;20060;-72
2024/03/12 14:08:43;;;;;;;5.70;2.25;;;;;;;;;;4870728;29;20061;-73
2024/03/12 14:11:14;;;;;;;6.28;2.10;;;;;;;;;;4871737;29;20533;-73
2024/03/12 14:13:45;;;;;;;7.60;2.22;;;;;;;;;;4870896;29;20044;-73
2024/03/12 14:16:15;;;;;;;5.60;2.53;;;;;;;;;;4870026;29;20052;-73
2024/03/12 14:18:49;;;;;;;4.13;2.13;;;;;;;;;;4870719;29;20064;-73
2024/03/12 14:21:20;;;;;;;4.82;2.03;;;;;;;;;;4871462;29;20056;-73
2024/03/12 14:23:52;;;;;;;4.85;1.88;;;;;;;;;;4870990;29;20080;-73
2024/03/12 14:26:22;;;;;;;6.55;1.80;;;;;;;;;;4871362;29;20049;-73
2024/03/12 14:28:54;;;;;;;6.18;2.05;;;;;;;;;;4870955;29;20068;-74
2024/03/12 14:31:25;;;;;;;3.22;1.75;;;;;;;;;;4870675;29;20056;-78
2024/03/12 14:33:56;;;;;;;3.30;1.95;;;;;;;;;;4870410;29;20068;-75
2024/03/12 14:36:27;;;;;;;9.60;2.13;;;;;;;;;;4871652;29;20489;-74
2024/03/12 14:38:58;;;;;;;4.13;2.20;;;;;;;;;;4871429;29;20610;-74
2024/03/12 14:41:30;;;;;;;6.45;1.90;;;;;;;;;;4870917;29;20064;-72
2024/03/12 14:44:00;;;;;;;4.38;2.10;;;;;;;;;;4871288;29;20048;-72
2024/03/12 14:46:30;;;;;;;9.80;2.08;;;;;;;;;;4870219;29;20511;-72
2024/03/12 14:49:01;;;;;;;8.90;7.57;;;;;;;;;;4870511;29;20057;-72
2024/03/12 14:51:32;;;;;;;3.60;1.70;;;;;;;;;;4870037;29;20107;-73
2024/03/12 14:54:02;;;;;;;4.68;1.98;;;;;;;;;;4870425;29;20057;-72
2024/03/12 14:56:32;;;;;;;4.28;1.55;;;;;;;;;;4870260;29;20053;-75
2024/03/12 14:59:05;;;;;;;2.10;1.75;;;;;;;;;;4869678;29;20051;-72
2024/03/12 15:01:36;;;;;;;3.35;2.00;;;;;;;;;;4870328;29;20063;-74
2024/03/12 15:04:07;;;;;;;3.38;1.42;;;;;;;;;;4868626;29;20771;-74
2024/03/12 15:06:40;;;;;;;5.90;1.88;;;;;;;;;;4868464;29;20045;-76
2024/03/12 15:09:13;;;;;;;9.85;1.90;;;;;;;;;;4869703;29;20619;-76
2024/03/12 15:11:46;;;;;;;4.53;1.83;;;;;;;;;;4870781;29;20049;-74
2024/03/12 15:14:20;;;;;;;2.65;1.73;;;;;;;;;;4869905;29;20052;-74
2024/03/12 15:16:51;;;;;;;3.00;1.88;;;;;;;;;;4868123;29;20532;-74
2024/03/12 15:19:25;;;;;;;4.45;1.60;;;;;;;;;;4868421;29;20053;-74